CRL701 LFLL-FIMP
Flight info
| Callsign | CRL701 |
|---|---|
| Flight time | N/A |
| Altitude | 34000 |
| Route | RISOR T47 LAMDO DCT KUMIN DCT ERTEV/N0467F350 DCT KISTO DCT POKAV DCT LURON DCT OLLEK DCT ELIMO M732 DITAR R2 ATMUL/N0471F370 N314 TIKAT G300 MAV UM665 APDID/N0468F390 UM665 ITLOX/N0469F380 UM665 ANKOR/N0463F390 UA665 UVDUK/N0465F400 UL441 IXEBU/N0463F390 UN304 MAEVA UL433 APKOT DCT TIBAG TIBAG2F |
| Aircraft | A333/H-SDE3GHIJ2J3J5M1RVWXY/LB2D1 |
Departure
| Time | 2026-05-06 07:26 |
|---|---|
| Airport | Lyon Saint-Exupéry Airport (LFLL) |
Arrival
| Time | N/A |
|---|---|
| Airport | Sir Seewoosagur Ramgoolam International Airport (FIMP) |
| Time | Latitude | Longitude | Altitude | Speed | Heading |
|---|---|---|---|---|---|
| 2026-05-06 07:05 | 45.71832 | 5.08051 | 802 ft | 0 kts | 297° |
| 2026-05-06 07:14 | 45.71831 | 5.08054 | 802 ft | 2 kts | 297° |
| 2026-05-06 07:14 | 45.71821 | 5.08082 | 802 ft | 1 kts | 297° |
| 2026-05-06 07:14 | 45.71816 | 5.08094 | 802 ft | 1 kts | 300° |
| 2026-05-06 07:15 | 45.71812 | 5.08106 | 802 ft | 1 kts | 297° |
| 2026-05-06 07:15 | 45.71805 | 5.08126 | 803 ft | 1 kts | 291° |
| 2026-05-06 07:15 | 45.71802 | 5.08137 | 803 ft | 1 kts | 278° |
| 2026-05-06 07:15 | 45.71802 | 5.08151 | 803 ft | 1 kts | 261° |
| 2026-05-06 07:16 | 45.71803 | 5.08162 | 803 ft | 1 kts | 245° |
| 2026-05-06 07:16 | 45.71806 | 5.08171 | 803 ft | 1 kts | 231° |
| 2026-05-06 07:16 | 45.71811 | 5.08179 | 803 ft | 1 kts | 217° |
| 2026-05-06 07:16 | 45.71817 | 5.08185 | 803 ft | 0 kts | 208° |
| 2026-05-06 07:19 | 45.71817 | 5.08184 | 803 ft | 0 kts | 208° |
| 2026-05-06 07:20 | 45.71785 | 5.08159 | 803 ft | 8 kts | 209° |
| 2026-05-06 07:20 | 45.71727 | 5.08135 | 803 ft | 8 kts | 169° |
| 2026-05-06 07:20 | 45.71693 | 5.08186 | 804 ft | 6 kts | 116° |
| 2026-05-06 07:20 | 45.71679 | 5.08236 | 805 ft | 4 kts | 102° |
| 2026-05-06 07:21 | 45.71680 | 5.08259 | 805 ft | 0 kts | 78° |
| 2026-05-06 07:21 | 45.71683 | 5.08319 | 806 ft | 10 kts | 86° |
| 2026-05-06 07:21 | 45.71681 | 5.08435 | 808 ft | 14 kts | 104° |
| 2026-05-06 07:21 | 45.71608 | 5.08504 | 809 ft | 12 kts | 175° |
| 2026-05-06 07:22 | 45.71524 | 5.08513 | 811 ft | 11 kts | 175° |
| 2026-05-06 07:22 | 45.71451 | 5.08521 | 812 ft | 9 kts | 176° |
| 2026-05-06 07:22 | 45.71388 | 5.08527 | 812 ft | 8 kts | 176° |
| 2026-05-06 07:22 | 45.71322 | 5.08534 | 813 ft | 9 kts | 175° |
| 2026-05-06 07:23 | 45.71256 | 5.08541 | 815 ft | 10 kts | 175° |
| 2026-05-06 07:23 | 45.71169 | 5.08564 | 817 ft | 13 kts | 157° |
| 2026-05-06 07:23 | 45.71119 | 5.08655 | 819 ft | 10 kts | 106° |
| 2026-05-06 07:23 | 45.71102 | 5.08747 | 821 ft | 8 kts | 105° |
| 2026-05-06 07:24 | 45.71090 | 5.08810 | 823 ft | 5 kts | 105° |
| 2026-05-06 07:24 | 45.71079 | 5.08891 | 824 ft | 9 kts | 93° |
| 2026-05-06 07:24 | 45.71090 | 5.08983 | 825 ft | 9 kts | 54° |
| 2026-05-06 07:24 | 45.71132 | 5.09016 | 825 ft | 4 kts | 12° |
| 2026-05-06 07:25 | 45.71164 | 5.09016 | 825 ft | 4 kts | 355° |
| 2026-05-06 07:25 | 45.71204 | 5.09012 | 824 ft | 12 kts | 355° |
| 2026-05-06 07:25 | 45.71531 | 5.08972 | 819 ft | 85 kts | 354° |
| 2026-05-06 07:25 | 45.72368 | 5.08870 | 807 ft | 152 kts | 355° |
| 2026-05-06 07:26 | 45.73564 | 5.08716 | 1082 ft | 182 kts | 353° |
| 2026-05-06 07:26 | 45.74810 | 5.08556 | 1896 ft | 180 kts | 352° |
| 2026-05-06 07:26 | 45.76047 | 5.08362 | 2698 ft | 178 kts | 351° |
| 2026-05-06 07:26 | 45.77284 | 5.08199 | 2988 ft | 186 kts | 354° |
| 2026-05-06 07:27 | 45.78633 | 5.08055 | 3158 ft | 202 kts | 354° |
| 2026-05-06 07:27 | 45.80119 | 5.07904 | 3348 ft | 224 kts | 354° |
| 2026-05-06 07:27 | 45.81707 | 5.07754 | 3878 ft | 234 kts | 357° |
| 2026-05-06 07:27 | 45.83299 | 5.08293 | 4455 ft | 244 kts | 29° |
| 2026-05-06 07:28 | 45.84498 | 5.10000 | 5102 ft | 253 kts | 59° |
| 2026-05-06 07:28 | 45.84962 | 5.12446 | 5700 ft | 261 kts | 90° |
| 2026-05-06 07:28 | 45.83275 | 5.16839 | 6937 ft | 266 kts | 150° |
| 2026-05-06 07:29 | 45.81570 | 5.17622 | 7632 ft | 261 kts | 180° |
| 2026-05-06 07:29 | 45.79787 | 5.17366 | 8331 ft | 259 kts | 185° |
| 2026-05-06 07:29 | 45.77977 | 5.17500 | 8926 ft | 265 kts | 170° |
| 2026-05-06 07:29 | 45.76231 | 5.18139 | 9679 ft | 264 kts | 166° |
| 2026-05-06 07:30 | 45.74445 | 5.18940 | 10255 ft | 269 kts | 163° |
| 2026-05-06 07:30 | 45.72702 | 5.19786 | 10980 ft | 268 kts | 160° |
| 2026-05-06 07:30 | 45.71135 | 5.21264 | 11476 ft | 280 kts | 134° |
| 2026-05-06 07:30 | 45.69978 | 5.23623 | 11764 ft | 296 kts | 124° |
| 2026-05-06 07:31 | 45.68806 | 5.26075 | 12049 ft | 310 kts | 126° |
| 2026-05-06 07:31 | 45.67543 | 5.28660 | 12365 ft | 324 kts | 126° |
| 2026-05-06 07:31 | 45.66217 | 5.31357 | 12702 ft | 338 kts | 127° |
| 2026-05-06 07:31 | 45.64838 | 5.34154 | 12966 ft | 354 kts | 127° |
| 2026-05-06 07:32 | 45.63399 | 5.37071 | 13207 ft | 370 kts | 127° |
| 2026-05-06 07:32 | 45.61895 | 5.40118 | 13671 ft | 379 kts | 127° |
| 2026-05-06 07:32 | 45.60379 | 5.43183 | 14409 ft | 379 kts | 127° |
| 2026-05-06 07:32 | 45.58854 | 5.46263 | 15100 ft | 380 kts | 127° |
| 2026-05-06 07:33 | 45.57342 | 5.49315 | 15687 ft | 383 kts | 127° |
| 2026-05-06 07:33 | 45.55806 | 5.52410 | 16293 ft | 386 kts | 127° |
| 2026-05-06 07:33 | 45.54258 | 5.55526 | 16903 ft | 388 kts | 127° |
| 2026-05-06 07:33 | 45.52681 | 5.58698 | 17474 ft | 391 kts | 126° |
| 2026-05-06 07:34 | 45.51427 | 5.62100 | 17974 ft | 398 kts | 110° |
| 2026-05-06 07:34 | 45.50959 | 5.66026 | 18482 ft | 405 kts | 93° |
| 2026-05-06 07:34 | 45.51311 | 5.70014 | 19016 ft | 410 kts | 82° |
| 2026-05-06 07:34 | 45.51736 | 5.74008 | 19537 ft | 412 kts | 84° |
| 2026-05-06 07:35 | 45.52131 | 5.78057 | 20038 ft | 415 kts | 85° |
| 2026-05-06 07:35 | 45.52514 | 5.82118 | 20539 ft | 418 kts | 85° |
| 2026-05-06 07:35 | 45.52773 | 5.84893 | 20834 ft | 421 kts | 85° |
| 2026-05-06 07:35 | 45.53282 | 5.90393 | 21462 ft | 425 kts | 85° |
| 2026-05-06 07:36 | 45.53668 | 5.94586 | 21904 ft | 428 kts | 85° |
| 2026-05-06 07:36 | 45.54053 | 5.98784 | 22367 ft | 430 kts | 85° |
| 2026-05-06 07:36 | 45.54440 | 6.02988 | 22715 ft | 434 kts | 85° |
| 2026-05-06 07:36 | 45.54831 | 6.07252 | 23157 ft | 436 kts | 86° |
| 2026-05-06 07:37 | 45.55146 | 6.11595 | 23484 ft | 437 kts | 93° |
| 2026-05-06 07:37 | 45.54730 | 6.15770 | 23822 ft | 432 kts | 110° |
| 2026-05-06 07:37 | 45.53462 | 6.19644 | 24167 ft | 426 kts | 127° |
| 2026-05-06 07:37 | 45.51768 | 6.23099 | 24584 ft | 428 kts | 128° |
| 2026-05-06 07:38 | 45.50085 | 6.26566 | 24915 ft | 431 kts | 129° |
| 2026-05-06 07:38 | 45.48379 | 6.30078 | 25255 ft | 434 kts | 129° |
| 2026-05-06 07:38 | 45.46650 | 6.33641 | 25582 ft | 437 kts | 129° |
| 2026-05-06 07:38 | 45.44940 | 6.37155 | 25981 ft | 439 kts | 129° |
| 2026-05-06 07:39 | 45.43182 | 6.40771 | 26257 ft | 442 kts | 129° |
| 2026-05-06 07:39 | 45.41441 | 6.44343 | 26553 ft | 446 kts | 130° |
| 2026-05-06 07:39 | 45.39675 | 6.47962 | 26878 ft | 448 kts | 130° |
| 2026-05-06 07:39 | 45.37901 | 6.51593 | 27194 ft | 451 kts | 130° |
| 2026-05-06 07:40 | 45.36111 | 6.55255 | 27563 ft | 452 kts | 130° |
| 2026-05-06 07:40 | 45.34299 | 6.58956 | 27914 ft | 454 kts | 130° |
| 2026-05-06 07:40 | 45.32503 | 6.62617 | 28061 ft | 460 kts | 131° |
| 2026-05-06 07:40 | 45.31271 | 6.65128 | 28194 ft | 463 kts | 131° |
| 2026-05-06 07:41 | 45.28816 | 6.70125 | 28729 ft | 462 kts | 131° |
| 2026-05-06 07:41 | 45.26964 | 6.73886 | 28889 ft | 467 kts | 132° |
| 2026-05-06 07:41 | 45.25104 | 6.77655 | 29134 ft | 469 kts | 132° |
| 2026-05-06 07:41 | 45.23259 | 6.81398 | 29481 ft | 468 kts | 132° |
| 2026-05-06 07:42 | 45.21368 | 6.85224 | 29767 ft | 470 kts | 132° |
| 2026-05-06 07:42 | 45.19497 | 6.89006 | 30138 ft | 469 kts | 133° |
| 2026-05-06 07:42 | 45.17634 | 6.92763 | 30407 ft | 470 kts | 133° |
| 2026-05-06 07:42 | 45.15772 | 6.96515 | 30739 ft | 470 kts | 133° |
| 2026-05-06 07:43 | 45.13888 | 7.00307 | 31116 ft | 469 kts | 133° |
| 2026-05-06 07:43 | 45.12031 | 7.04040 | 31566 ft | 465 kts | 133° |
| 2026-05-06 07:43 | 45.10154 | 7.07810 | 31887 ft | 465 kts | 133° |
| 2026-05-06 07:43 | 45.08308 | 7.11509 | 32148 ft | 465 kts | 133° |
| 2026-05-06 07:44 | 45.06454 | 7.15223 | 32529 ft | 463 kts | 133° |
| 2026-05-06 07:44 | 45.04604 | 7.18921 | 32848 ft | 462 kts | 133° |
| 2026-05-06 07:44 | 45.02753 | 7.22618 | 33176 ft | 461 kts | 133° |
| 2026-05-06 07:44 | 45.00903 | 7.26306 | 33419 ft | 461 kts | 133° |
| 2026-05-06 07:45 | 44.99048 | 7.30003 | 33712 ft | 461 kts | 133° |
| 2026-05-06 07:45 | 44.97200 | 7.33660 | 33890 ft | 461 kts | 134° |
| 2026-05-06 07:45 | 44.95063 | 7.36951 | 33812 ft | 450 kts | 146° |
| 2026-05-06 07:45 | 44.92713 | 7.39779 | 33880 ft | 448 kts | 147° |
| 2026-05-06 07:46 | 44.88035 | 7.45565 | 33859 ft | 448 kts | 146° |
| 2026-05-06 07:46 | 44.83370 | 7.51364 | 33871 ft | 448 kts | 146° |
| 2026-05-06 07:47 | 44.78694 | 7.57169 | 33862 ft | 448 kts | 146° |
| 2026-05-06 07:47 | 44.74039 | 7.62934 | 33862 ft | 450 kts | 146° |
| 2026-05-06 07:48 | 44.69338 | 7.68744 | 33865 ft | 449 kts | 147° |
| 2026-05-06 07:48 | 44.64656 | 7.74518 | 33862 ft | 450 kts | 147° |
| 2026-05-06 07:49 | 44.59988 | 7.80263 | 33856 ft | 449 kts | 147° |
| 2026-05-06 07:49 | 44.55290 | 7.86029 | 33851 ft | 449 kts | 147° |
| 2026-05-06 07:50 | 44.50582 | 7.91796 | 33856 ft | 451 kts | 147° |
| 2026-05-06 07:50 | 44.45884 | 7.97540 | 33841 ft | 451 kts | 147° |
| 2026-05-06 07:51 | 44.41184 | 8.03273 | 33838 ft | 449 kts | 147° |
| 2026-05-06 07:51 | 44.36431 | 8.09053 | 33839 ft | 453 kts | 147° |
| 2026-05-06 07:52 | 44.31707 | 8.14790 | 33842 ft | 452 kts | 147° |
| 2026-05-06 07:52 | 44.26958 | 8.20543 | 33843 ft | 450 kts | 147° |
| 2026-05-06 07:53 | 44.22248 | 8.26236 | 33847 ft | 451 kts | 147° |
| 2026-05-06 07:53 | 44.17531 | 8.31926 | 33842 ft | 450 kts | 148° |
| 2026-05-06 07:54 | 44.12778 | 8.37645 | 33840 ft | 452 kts | 147° |
| 2026-05-06 07:54 | 44.08038 | 8.43337 | 33836 ft | 452 kts | 147° |
| 2026-05-06 07:55 | 44.03267 | 8.49052 | 33831 ft | 454 kts | 147° |
| 2026-05-06 07:55 | 43.98510 | 8.54740 | 33835 ft | 453 kts | 147° |
| 2026-05-06 07:56 | 43.93766 | 8.60400 | 33835 ft | 452 kts | 147° |
| 2026-05-06 07:56 | 43.88973 | 8.66103 | 33841 ft | 453 kts | 148° |
| 2026-05-06 07:57 | 43.84214 | 8.71757 | 33849 ft | 451 kts | 148° |
| 2026-05-06 07:57 | 43.79436 | 8.77418 | 33851 ft | 452 kts | 148° |
| 2026-05-06 07:58 | 43.74677 | 8.83045 | 33853 ft | 453 kts | 148° |
| 2026-05-06 07:58 | 43.69882 | 8.88703 | 33856 ft | 454 kts | 148° |
| 2026-05-06 07:59 | 43.65076 | 8.94359 | 33867 ft | 454 kts | 147° |
| 2026-05-06 07:59 | 43.60169 | 8.99927 | 33869 ft | 462 kts | 148° |
| 2026-05-06 08:00 | 43.55154 | 9.05528 | 33855 ft | 470 kts | 148° |
| 2026-05-06 08:00 | 43.50052 | 9.11216 | 33858 ft | 475 kts | 148° |
| 2026-05-06 08:01 | 43.44911 | 9.16938 | 33855 ft | 478 kts | 148° |
| 2026-05-06 08:01 | 43.39712 | 9.22710 | 33859 ft | 480 kts | 148° |
| 2026-05-06 08:02 | 43.34555 | 9.28421 | 33863 ft | 481 kts | 148° |
| 2026-05-06 08:02 | 43.29355 | 9.34168 | 33874 ft | 482 kts | 148° |
| 2026-05-06 08:03 | 43.24126 | 9.39930 | 33855 ft | 483 kts | 148° |
| 2026-05-06 08:03 | 43.19692 | 9.44809 | 33407 ft | 483 kts | 148° |
| 2026-05-06 08:04 | 43.17097 | 9.47665 | 33851 ft | 473 kts | 148° |
| 2026-05-06 08:04 | 43.14603 | 9.50398 | 33935 ft | 475 kts | 148° |
| 2026-05-06 08:04 | 43.12496 | 9.52649 | 33808 ft | 479 kts | 141° |
| 2026-05-06 08:04 | 43.09932 | 9.55495 | 34133 ft | 476 kts | 140° |
| 2026-05-06 08:05 | 43.07185 | 9.58069 | 33912 ft | 484 kts | 153° |
| 2026-05-06 08:05 | 43.04016 | 9.59521 | 34016 ft | 482 kts | 169° |
| 2026-05-06 08:05 | 42.97327 | 9.59958 | 33965 ft | 488 kts | 178° |
| 2026-05-06 08:06 | 42.90551 | 9.60140 | 34005 ft | 491 kts | 178° |
| 2026-05-06 08:06 | 42.83725 | 9.60324 | 34001 ft | 493 kts | 178° |
| 2026-05-06 08:07 | 42.76866 | 9.59953 | 33979 ft | 493 kts | 193° |
| 2026-05-06 08:07 | 42.73709 | 9.58302 | 34017 ft | 492 kts | 208° |
| 2026-05-06 08:07 | 42.70842 | 9.55781 | 34028 ft | 492 kts | 213° |
| 2026-05-06 08:08 | 42.65165 | 9.50625 | 34002 ft | 494 kts | 213° |
| 2026-05-06 08:08 | 42.59457 | 9.45446 | 33999 ft | 494 kts | 213° |
| 2026-05-06 08:09 | 42.53726 | 9.40254 | 33998 ft | 495 kts | 213° |
| 2026-05-06 08:09 | 42.48028 | 9.35099 | 33999 ft | 495 kts | 213° |
| 2026-05-06 08:10 | 42.42282 | 9.29908 | 33999 ft | 495 kts | 213° |
| 2026-05-06 08:10 | 42.36590 | 9.24774 | 33999 ft | 495 kts | 213° |
| 2026-05-06 08:11 | 42.30861 | 9.19613 | 33999 ft | 495 kts | 213° |
| 2026-05-06 08:11 | 42.25116 | 9.14445 | 33999 ft | 495 kts | 213° |
| 2026-05-06 08:12 | 42.19403 | 9.09314 | 33998 ft | 495 kts | 213° |
| 2026-05-06 08:12 | 42.13652 | 9.04156 | 33998 ft | 495 kts | 213° |
| 2026-05-06 08:13 | 42.07921 | 8.99022 | 33999 ft | 495 kts | 213° |
| 2026-05-06 08:13 | 42.02185 | 8.93962 | 33992 ft | 495 kts | 209° |
| 2026-05-06 08:14 | 41.99019 | 8.92273 | 33991 ft | 494 kts | 193° |
| 2026-05-06 08:14 | 41.95613 | 8.91680 | 34034 ft | 493 kts | 184° |
| 2026-05-06 08:14 | 41.88749 | 8.91090 | 33996 ft | 495 kts | 184° |
| 2026-05-06 08:15 | 41.81908 | 8.90718 | 33981 ft | 494 kts | 174° |
| 2026-05-06 08:15 | 41.75243 | 8.92898 | 33995 ft | 493 kts | 159° |
| 2026-05-06 08:16 | 41.68872 | 8.96220 | 33998 ft | 495 kts | 159° |
| 2026-05-06 08:16 | 41.62437 | 8.99569 | 33998 ft | 495 kts | 159° |
| 2026-05-06 08:17 | 41.56075 | 9.02876 | 34000 ft | 495 kts | 159° |
| 2026-05-06 08:17 | 41.49625 | 9.06226 | 34001 ft | 495 kts | 159° |
| 2026-05-06 08:18 | 41.43222 | 9.09547 | 34001 ft | 495 kts | 159° |
| 2026-05-06 08:18 | 41.36998 | 9.13351 | 34007 ft | 495 kts | 153° |
| 2026-05-06 08:19 | 41.30817 | 9.17405 | 34001 ft | 495 kts | 153° |
| 2026-05-06 08:19 | 41.24632 | 9.21457 | 33998 ft | 496 kts | 153° |
| 2026-05-06 08:20 | 41.18485 | 9.25480 | 33998 ft | 496 kts | 153° |
| 2026-05-06 08:20 | 41.12307 | 9.29518 | 33999 ft | 496 kts | 153° |
| 2026-05-06 08:21 | 41.06125 | 9.33555 | 34000 ft | 496 kts | 153° |
| 2026-05-06 08:21 | 40.99938 | 9.37590 | 34000 ft | 496 kts | 153° |
| 2026-05-06 08:22 | 40.93792 | 9.41593 | 34000 ft | 496 kts | 153° |
| 2026-05-06 08:22 | 40.87619 | 9.45610 | 33999 ft | 496 kts | 153° |
| 2026-05-06 08:23 | 40.81403 | 9.49650 | 33999 ft | 496 kts | 153° |
| 2026-05-06 08:23 | 40.77298 | 9.52316 | 34000 ft | 496 kts | 153° |
| 2026-05-06 08:24 | 40.73039 | 9.55080 | 33999 ft | 495 kts | 153° |
| 2026-05-06 08:24 | 40.66731 | 9.58564 | 34003 ft | 494 kts | 162° |
| 2026-05-06 08:25 | 40.60169 | 9.61240 | 33994 ft | 495 kts | 162° |
| 2026-05-06 08:25 | 40.53620 | 9.63908 | 33998 ft | 495 kts | 162° |
| 2026-05-06 08:26 | 40.47045 | 9.66584 | 34000 ft | 495 kts | 163° |
| 2026-05-06 08:26 | 40.40472 | 9.69256 | 34001 ft | 495 kts | 163° |
| 2026-05-06 08:27 | 40.33806 | 9.71440 | 34005 ft | 495 kts | 167° |
| 2026-05-06 08:27 | 40.27078 | 9.73367 | 33988 ft | 494 kts | 174° |
| 2026-05-06 08:28 | 40.20206 | 9.73779 | 33997 ft | 495 kts | 178° |
| 2026-05-06 08:28 | 40.13327 | 9.74133 | 34003 ft | 495 kts | 178° |
| 2026-05-06 08:29 | 40.06428 | 9.74489 | 34001 ft | 495 kts | 178° |
| 2026-05-06 08:29 | 39.99568 | 9.74842 | 34000 ft | 495 kts | 178° |
| 2026-05-06 08:30 | 39.92722 | 9.75196 | 33999 ft | 495 kts | 178° |
| 2026-05-06 08:30 | 39.85809 | 9.75553 | 33999 ft | 495 kts | 178° |
| 2026-05-06 08:31 | 39.79038 | 9.76653 | 33992 ft | 494 kts | 162° |
| 2026-05-06 08:31 | 39.73032 | 9.80831 | 33997 ft | 494 kts | 140° |
| 2026-05-06 08:32 | 39.70636 | 9.84052 | 34009 ft | 494 kts | 128° |
| 2026-05-06 08:32 | 39.68780 | 9.87736 | 34013 ft | 493 kts | 121° |
| 2026-05-06 08:32 | 39.64668 | 9.94843 | 34005 ft | 494 kts | 129° |
| 2026-05-06 08:33 | 39.60336 | 10.01750 | 34001 ft | 495 kts | 129° |
| 2026-05-06 08:33 | 39.55963 | 10.08681 | 33999 ft | 496 kts | 129° |
| 2026-05-06 08:34 | 39.49433 | 10.18999 | 34001 ft | 496 kts | 129° |
| 2026-05-06 08:35 | 39.45075 | 10.25867 | 34000 ft | 495 kts | 129° |
| 2026-05-06 08:35 | 39.40709 | 10.32732 | 34000 ft | 495 kts | 129° |
| 2026-05-06 08:36 | 39.36337 | 10.39590 | 33999 ft | 495 kts | 129° |
| 2026-05-06 08:36 | 39.31976 | 10.46418 | 34000 ft | 495 kts | 129° |
| 2026-05-06 08:37 | 39.27589 | 10.53272 | 34003 ft | 495 kts | 129° |
| 2026-05-06 08:37 | 39.23236 | 10.60056 | 34232 ft | 491 kts | 129° |
| 2026-05-06 08:37 | 39.21080 | 10.63412 | 34559 ft | 486 kts | 129° |
| 2026-05-06 08:38 | 39.18922 | 10.66766 | 34859 ft | 483 kts | 130° |
| 2026-05-06 08:38 | 39.16799 | 10.70063 | 35040 ft | 482 kts | 130° |
| 2026-05-06 08:38 | 39.14655 | 10.73390 | 34956 ft | 486 kts | 130° |
| 2026-05-06 08:39 | 39.10327 | 10.80093 | 35004 ft | 488 kts | 130° |
| 2026-05-06 08:39 | 39.06064 | 10.86705 | 34993 ft | 470 kts | 129° |
| 2026-05-06 08:40 | 39.01955 | 10.93056 | 34991 ft | 455 kts | 129° |
| 2026-05-06 08:40 | 38.97971 | 10.99192 | 34991 ft | 444 kts | 129° |
| 2026-05-06 08:41 | 38.94048 | 11.05222 | 34991 ft | 434 kts | 128° |
| 2026-05-06 08:41 | 38.90213 | 11.11105 | 34989 ft | 425 kts | 128° |
| 2026-05-06 08:42 | 38.86454 | 11.16861 | 34988 ft | 417 kts | 128° |
| 2026-05-06 08:42 | 38.82794 | 11.22455 | 34988 ft | 409 kts | 128° |
| 2026-05-06 08:43 | 38.79159 | 11.28001 | 34988 ft | 401 kts | 128° |
| 2026-05-06 08:43 | 38.75618 | 11.33394 | 34987 ft | 393 kts | 128° |
| 2026-05-06 08:44 | 38.72151 | 11.38665 | 34987 ft | 386 kts | 128° |
| 2026-05-06 08:44 | 38.68728 | 11.43861 | 34987 ft | 378 kts | 128° |
| 2026-05-06 08:45 | 38.65378 | 11.48938 | 34987 ft | 371 kts | 128° |
| 2026-05-06 08:45 | 38.62076 | 11.53934 | 34986 ft | 364 kts | 128° |
| 2026-05-06 08:46 | 38.58840 | 11.58824 | 34987 ft | 356 kts | 128° |
| 2026-05-06 08:46 | 38.55693 | 11.63572 | 34984 ft | 349 kts | 128° |
| 2026-05-06 08:47 | 38.52595 | 11.68240 | 34983 ft | 341 kts | 128° |
| 2026-05-06 08:47 | 38.49572 | 11.72790 | 34981 ft | 333 kts | 128° |
| 2026-05-06 08:48 | 38.46605 | 11.77247 | 34982 ft | 325 kts | 128° |
| 2026-05-06 08:48 | 38.43727 | 11.81566 | 34977 ft | 315 kts | 128° |
| 2026-05-06 08:48 | 38.42337 | 11.83655 | 35048 ft | 304 kts | 128° |
| 2026-05-06 08:49 | 38.41000 | 11.85708 | 34951 ft | 300 kts | 127° |
| 2026-05-06 08:49 | 38.39677 | 11.87820 | 34524 ft | 307 kts | 125° |
| 2026-05-06 08:49 | 38.38379 | 11.89994 | 34133 ft | 311 kts | 124° |
| 2026-05-06 08:50 | 38.35947 | 11.94361 | 34063 ft | 297 kts | 121° |
| 2026-05-06 08:50 | 38.34813 | 11.96564 | 33842 ft | 298 kts | 120° |
| 2026-05-06 08:50 | 38.33721 | 11.98829 | 33478 ft | 304 kts | 118° |
| 2026-05-06 08:50 | 38.32590 | 12.01121 | 33242 ft | 304 kts | 126° |
| 2026-05-06 08:51 | 38.31249 | 12.03195 | 33148 ft | 300 kts | 127° |
| 2026-05-06 08:51 | 38.29936 | 12.05178 | 33122 ft | 293 kts | 127° |
| 2026-05-06 08:51 | 38.28624 | 12.07187 | 32929 ft | 294 kts | 127° |
| 2026-05-06 08:51 | 38.27377 | 12.09256 | 32595 ft | 300 kts | 115° |
| 2026-05-06 08:52 | 38.26732 | 12.11792 | 31944 ft | 315 kts | 88° |
| 2026-05-06 08:52 | 38.27122 | 12.14540 | 31370 ft | 325 kts | 59° |
| 2026-05-06 08:52 | 38.28576 | 12.16690 | 31276 ft | 318 kts | 25° |
| 2026-05-06 08:52 | 38.30681 | 12.17312 | 30994 ft | 319 kts | 348° |
| 2026-05-06 08:53 | 38.32096 | 12.16796 | 30780 ft | 319 kts | 327° |
| 2026-05-06 08:53 | 38.33719 | 12.14991 | 30479 ft | 323 kts | 308° |
| 2026-05-06 08:53 | 38.35901 | 12.11862 | 27018 ft | 412 kts | 321° |
| 2026-05-06 08:53 | 38.38460 | 12.09997 | 24276 ft | 459 kts | 340° |
| 2026-05-06 08:54 | 38.41561 | 12.09397 | 23861 ft | 437 kts | 1° |
| 2026-05-06 08:54 | 38.44494 | 12.09937 | 23339 ft | 429 kts | 15° |
| 2026-05-06 08:54 | 38.47200 | 12.11505 | 22397 ft | 429 kts | 33° |
| 2026-05-06 08:54 | 38.49385 | 12.14058 | 21746 ft | 426 kts | 52° |
| 2026-05-06 08:55 | 38.50762 | 12.17395 | 21551 ft | 434 kts | 73° |
| 2026-05-06 08:55 | 38.51111 | 12.21200 | 22512 ft | 429 kts | 92° |
| 2026-05-06 08:55 | 38.50602 | 12.24868 | 23131 ft | 426 kts | 106° |
| 2026-05-06 08:55 | 38.49694 | 12.28502 | 23362 ft | 433 kts | 110° |
| 2026-05-06 08:56 | 38.48205 | 12.31826 | 23711 ft | 437 kts | 128° |
| 2026-05-06 08:56 | 38.46177 | 12.34705 | 24168 ft | 438 kts | 134° |
| 2026-05-06 08:56 | 38.44007 | 12.37457 | 24568 ft | 441 kts | 135° |
| 2026-05-06 08:56 | 38.41801 | 12.40145 | 24800 ft | 432 kts | 135° |
| 2026-05-06 08:57 | 38.39644 | 12.42733 | 24858 ft | 425 kts | 135° |
| 2026-05-06 08:57 | 38.37526 | 12.45248 | 24957 ft | 417 kts | 135° |
| 2026-05-06 08:57 | 38.35426 | 12.47730 | 25058 ft | 409 kts | 136° |
| 2026-05-06 08:57 | 38.33353 | 12.50174 | 25159 ft | 401 kts | 136° |
| 2026-05-06 08:58 | 38.31302 | 12.52584 | 25277 ft | 403 kts | 137° |
| 2026-05-06 08:58 | 38.29228 | 12.55003 | 25422 ft | 413 kts | 137° |
| 2026-05-06 08:58 | 38.27094 | 12.57502 | 25568 ft | 422 kts | 137° |
| 2026-05-06 08:58 | 38.24886 | 12.60090 | 25712 ft | 431 kts | 137° |
| 2026-05-06 08:59 | 38.22677 | 12.62680 | 25850 ft | 440 kts | 137° |
| 2026-05-06 08:59 | 38.20395 | 12.65354 | 25991 ft | 448 kts | 137° |
| 2026-05-06 08:59 | 38.18100 | 12.68041 | 26245 ft | 453 kts | 137° |
| 2026-05-06 08:59 | 38.15779 | 12.70758 | 26626 ft | 455 kts | 137° |
| 2026-05-06 09:00 | 38.13448 | 12.73482 | 26995 ft | 458 kts | 137° |
| 2026-05-06 09:00 | 38.11099 | 12.76226 | 27352 ft | 460 kts | 137° |
| 2026-05-06 09:00 | 38.08754 | 12.78962 | 27686 ft | 462 kts | 137° |
| 2026-05-06 09:00 | 38.06372 | 12.81738 | 28007 ft | 465 kts | 137° |
| 2026-05-06 09:01 | 38.04005 | 12.84495 | 28314 ft | 467 kts | 137° |
| 2026-05-06 09:01 | 38.01587 | 12.87308 | 28619 ft | 469 kts | 137° |
| 2026-05-06 09:01 | 37.99202 | 12.90081 | 28906 ft | 471 kts | 137° |
| 2026-05-06 09:01 | 37.96764 | 12.92913 | 29163 ft | 474 kts | 137° |
| 2026-05-06 09:02 | 37.94324 | 12.95743 | 29481 ft | 475 kts | 137° |
| 2026-05-06 09:02 | 37.91913 | 12.98539 | 29863 ft | 474 kts | 137° |
| 2026-05-06 09:02 | 37.89471 | 13.01367 | 30279 ft | 473 kts | 137° |
| 2026-05-06 09:02 | 37.87063 | 13.04153 | 30673 ft | 472 kts | 137° |
| 2026-05-06 09:03 | 37.84650 | 13.06943 | 31059 ft | 471 kts | 137° |
| 2026-05-06 09:03 | 37.82261 | 13.09702 | 31427 ft | 470 kts | 137° |
| 2026-05-06 09:03 | 37.79820 | 13.12518 | 31790 ft | 469 kts | 137° |
| 2026-05-06 09:03 | 37.77426 | 13.15278 | 32130 ft | 469 kts | 137° |
| 2026-05-06 09:04 | 37.75026 | 13.18043 | 32459 ft | 468 kts | 137° |
| 2026-05-06 09:04 | 37.72649 | 13.20778 | 32780 ft | 467 kts | 137° |
| 2026-05-06 09:04 | 37.70227 | 13.23562 | 33100 ft | 467 kts | 137° |
| 2026-05-06 09:04 | 37.67848 | 13.26295 | 33403 ft | 466 kts | 137° |
| 2026-05-06 09:05 | 37.65463 | 13.29032 | 33701 ft | 465 kts | 137° |
| 2026-05-06 09:05 | 37.63073 | 13.31772 | 33978 ft | 465 kts | 137° |
| 2026-05-06 09:05 | 37.60655 | 13.34541 | 33987 ft | 472 kts | 137° |
| 2026-05-06 09:06 | 37.55757 | 13.40144 | 34008 ft | 475 kts | 137° |
| 2026-05-06 09:06 | 37.50942 | 13.45641 | 34000 ft | 465 kts | 137° |
| 2026-05-06 09:07 | 37.46157 | 13.51095 | 34000 ft | 465 kts | 137° |
| 2026-05-06 09:07 | 37.41343 | 13.56570 | 34000 ft | 466 kts | 137° |
| 2026-05-06 09:08 | 37.36562 | 13.61995 | 34000 ft | 466 kts | 137° |
| 2026-05-06 09:08 | 37.32533 | 13.66562 | 34000 ft | 466 kts | 138° |
| 2026-05-06 09:09 | 37.26917 | 13.72919 | 34000 ft | 466 kts | 138° |
| 2026-05-06 09:09 | 37.22120 | 13.78337 | 34000 ft | 466 kts | 138° |
| 2026-05-06 09:10 | 37.17283 | 13.83790 | 34000 ft | 466 kts | 138° |
| 2026-05-06 09:10 | 37.12472 | 13.89205 | 34000 ft | 466 kts | 138° |
| 2026-05-06 09:11 | 37.07640 | 13.94634 | 34012 ft | 468 kts | 138° |
| 2026-05-06 09:11 | 37.05224 | 13.97344 | 34245 ft | 468 kts | 138° |
| 2026-05-06 09:11 | 37.02816 | 14.00044 | 34605 ft | 466 kts | 138° |
| 2026-05-06 09:11 | 37.00396 | 14.02753 | 34922 ft | 465 kts | 138° |
| 2026-05-06 09:12 | 36.98000 | 14.05435 | 35017 ft | 465 kts | 138° |
| 2026-05-06 09:12 | 36.93208 | 14.10788 | 35008 ft | 463 kts | 138° |
| 2026-05-06 09:13 | 36.88401 | 14.16152 | 35001 ft | 463 kts | 138° |
| 2026-05-06 09:13 | 36.83607 | 14.21490 | 35000 ft | 463 kts | 138° |
| 2026-05-06 09:14 | 36.78809 | 14.26825 | 35000 ft | 463 kts | 138° |
| 2026-05-06 09:14 | 36.74003 | 14.32158 | 35000 ft | 463 kts | 138° |
| 2026-05-06 09:15 | 36.69184 | 14.37497 | 35000 ft | 463 kts | 138° |
| 2026-05-06 09:15 | 36.64377 | 14.42812 | 35000 ft | 463 kts | 138° |
| 2026-05-06 09:16 | 36.59554 | 14.48136 | 35000 ft | 463 kts | 138° |
| 2026-05-06 09:16 | 36.54744 | 14.53438 | 35000 ft | 463 kts | 138° |
| 2026-05-06 09:17 | 36.49919 | 14.58714 | 34996 ft | 463 kts | 140° |
| 2026-05-06 09:17 | 36.44601 | 14.63263 | 35003 ft | 464 kts | 145° |
| 2026-05-06 09:18 | 36.39269 | 14.67773 | 35003 ft | 463 kts | 146° |
| 2026-05-06 09:18 | 36.33978 | 14.72253 | 35001 ft | 463 kts | 146° |
| 2026-05-06 09:19 | 36.28634 | 14.76772 | 35000 ft | 463 kts | 146° |
| 2026-05-06 09:19 | 36.23312 | 14.81265 | 35000 ft | 463 kts | 146° |
| 2026-05-06 09:20 | 36.18020 | 14.85725 | 35000 ft | 463 kts | 146° |
| 2026-05-06 09:20 | 36.12693 | 14.90207 | 35000 ft | 463 kts | 146° |
| 2026-05-06 09:21 | 36.07338 | 14.94705 | 35000 ft | 463 kts | 146° |
| 2026-05-06 09:21 | 36.02042 | 14.99147 | 35000 ft | 463 kts | 146° |
| 2026-05-06 09:22 | 35.96685 | 15.03631 | 35000 ft | 463 kts | 146° |
| 2026-05-06 09:22 | 35.91394 | 15.08053 | 35000 ft | 463 kts | 146° |
| 2026-05-06 09:23 | 35.86057 | 15.12507 | 35000 ft | 463 kts | 146° |
| 2026-05-06 09:23 | 35.80723 | 15.16950 | 35000 ft | 463 kts | 146° |
| 2026-05-06 09:24 | 35.75367 | 15.21405 | 35000 ft | 463 kts | 146° |
| 2026-05-06 09:24 | 35.70027 | 15.25839 | 35000 ft | 463 kts | 146° |
| 2026-05-06 09:25 | 35.64714 | 15.30243 | 35000 ft | 463 kts | 146° |
| 2026-05-06 09:25 | 35.59359 | 15.34675 | 35000 ft | 463 kts | 146° |
| 2026-05-06 09:26 | 35.54038 | 15.39071 | 35000 ft | 463 kts | 146° |
| 2026-05-06 09:26 | 35.48683 | 15.43489 | 35000 ft | 463 kts | 146° |
| 2026-05-06 09:27 | 35.43306 | 15.47917 | 35000 ft | 463 kts | 146° |
| 2026-05-06 09:27 | 35.37968 | 15.52305 | 35000 ft | 463 kts | 146° |
| 2026-05-06 09:28 | 35.32616 | 15.56699 | 35000 ft | 463 kts | 146° |
| 2026-05-06 09:28 | 35.27275 | 15.61076 | 35000 ft | 463 kts | 146° |
| 2026-05-06 09:29 | 35.21910 | 15.65465 | 35000 ft | 463 kts | 146° |
| 2026-05-06 09:29 | 35.16559 | 15.69837 | 35000 ft | 463 kts | 146° |
| 2026-05-06 09:30 | 35.11232 | 15.74181 | 35000 ft | 463 kts | 146° |
| 2026-05-06 09:30 | 35.05841 | 15.78571 | 35000 ft | 463 kts | 146° |
| 2026-05-06 09:31 | 35.00481 | 15.82928 | 35000 ft | 463 kts | 146° |
| 2026-05-06 09:31 | 34.95151 | 15.87255 | 35000 ft | 463 kts | 146° |
| 2026-05-06 09:32 | 34.89789 | 15.91600 | 35000 ft | 463 kts | 146° |
| 2026-05-06 09:32 | 34.84409 | 15.95953 | 35000 ft | 463 kts | 146° |
| 2026-05-06 09:33 | 34.79063 | 16.00272 | 35000 ft | 463 kts | 146° |
| 2026-05-06 09:33 | 34.73677 | 16.04615 | 35000 ft | 463 kts | 146° |
| 2026-05-06 09:34 | 34.68296 | 16.08948 | 35000 ft | 463 kts | 146° |
| 2026-05-06 09:34 | 34.62933 | 16.13260 | 35000 ft | 463 kts | 146° |
| 2026-05-06 09:35 | 34.57578 | 16.17559 | 35000 ft | 463 kts | 146° |
| 2026-05-06 09:35 | 34.52226 | 16.21848 | 35000 ft | 463 kts | 146° |
| 2026-05-06 09:36 | 34.46837 | 16.26160 | 35000 ft | 463 kts | 146° |
| 2026-05-06 09:36 | 34.41473 | 16.30445 | 35000 ft | 463 kts | 146° |
| 2026-05-06 09:37 | 34.36965 | 16.34042 | 35000 ft | 463 kts | 146° |
| 2026-05-06 09:37 | 34.31063 | 16.39540 | 35004 ft | 463 kts | 132° |
| 2026-05-06 09:38 | 34.27333 | 16.44268 | 34991 ft | 464 kts | 134° |
| 2026-05-06 09:38 | 34.22069 | 16.50737 | 34999 ft | 463 kts | 134° |
| 2026-05-06 09:39 | 34.17565 | 16.56243 | 35000 ft | 463 kts | 134° |
| 2026-05-06 09:39 | 34.13027 | 16.61781 | 35000 ft | 463 kts | 134° |
| 2026-05-06 09:40 | 34.08527 | 16.67264 | 35000 ft | 463 kts | 135° |
| 2026-05-06 09:40 | 34.01728 | 16.75530 | 35000 ft | 463 kts | 135° |
| 2026-05-06 09:41 | 33.97177 | 16.81058 | 35000 ft | 463 kts | 135° |
| 2026-05-06 09:41 | 33.92651 | 16.86554 | 35000 ft | 463 kts | 135° |
| 2026-05-06 09:42 | 33.88123 | 16.92041 | 35000 ft | 463 kts | 135° |
| 2026-05-06 09:42 | 33.83584 | 16.97534 | 35000 ft | 463 kts | 135° |
| 2026-05-06 09:43 | 33.79042 | 17.03020 | 35000 ft | 463 kts | 135° |
| 2026-05-06 09:43 | 33.74491 | 17.08509 | 35000 ft | 463 kts | 135° |
| 2026-05-06 09:44 | 33.69937 | 17.13994 | 35000 ft | 463 kts | 135° |
| 2026-05-06 09:44 | 33.65388 | 17.19463 | 35000 ft | 463 kts | 135° |
| 2026-05-06 09:45 | 33.60860 | 17.24899 | 35000 ft | 463 kts | 135° |
| 2026-05-06 09:45 | 33.56298 | 17.30366 | 35000 ft | 463 kts | 135° |
| 2026-05-06 09:46 | 33.51743 | 17.35817 | 35000 ft | 463 kts | 135° |
| 2026-05-06 09:46 | 33.47187 | 17.41260 | 35000 ft | 463 kts | 135° |
| 2026-05-06 09:47 | 33.42634 | 17.46691 | 35000 ft | 463 kts | 135° |
| 2026-05-06 09:47 | 33.38080 | 17.52116 | 35000 ft | 463 kts | 135° |
| 2026-05-06 09:48 | 33.33506 | 17.57554 | 35000 ft | 463 kts | 135° |
| 2026-05-06 09:48 | 33.28959 | 17.62953 | 35000 ft | 463 kts | 135° |
| 2026-05-06 09:49 | 33.24389 | 17.68370 | 35000 ft | 463 kts | 135° |
| 2026-05-06 09:49 | 33.19846 | 17.73847 | 34999 ft | 463 kts | 133° |
| 2026-05-06 09:50 | 33.15447 | 17.79495 | 34998 ft | 463 kts | 133° |
| 2026-05-06 09:50 | 33.11078 | 17.85062 | 34999 ft | 463 kts | 133° |
| 2026-05-06 09:51 | 33.10215 | 17.86159 | 35388 ft | 463 kts | 133° |
| 2026-05-06 09:51 | 33.08221 | 17.88747 | 35033 ft | 469 kts | 140° |
| 2026-05-06 09:51 | 33.06002 | 17.91535 | 34750 ft | 456 kts | 140° |
| 2026-05-06 09:51 | 33.03861 | 17.94248 | 34994 ft | 447 kts | 140° |
| 2026-05-06 09:52 | 33.01709 | 17.96964 | 34829 ft | 458 kts | 140° |
| 2026-05-06 09:52 | 32.99506 | 17.99748 | 34812 ft | 461 kts | 139° |
| 2026-05-06 09:52 | 32.95088 | 18.05335 | 34890 ft | 469 kts | 136° |
| 2026-05-06 09:53 | 32.90599 | 18.11014 | 35065 ft | 478 kts | 135° |
| 2026-05-06 09:53 | 32.85974 | 18.16864 | 35062 ft | 495 kts | 135° |
| 2026-05-06 09:54 | 32.81190 | 18.22894 | 35120 ft | 511 kts | 135° |
| 2026-05-06 09:54 | 32.78726 | 18.25993 | 35005 ft | 518 kts | 135° |
| 2026-05-06 09:54 | 32.76233 | 18.29130 | 35108 ft | 518 kts | 135° |
| 2026-05-06 09:55 | 32.71355 | 18.35259 | 35061 ft | 510 kts | 135° |
| 2026-05-06 09:55 | 32.66469 | 18.41381 | 35061 ft | 509 kts | 135° |
| 2026-05-06 09:56 | 32.61560 | 18.47527 | 35064 ft | 519 kts | 135° |
| 2026-05-06 09:56 | 32.56565 | 18.53765 | 35064 ft | 527 kts | 135° |
| 2026-05-06 09:57 | 32.51503 | 18.60081 | 35070 ft | 533 kts | 135° |
| 2026-05-06 09:57 | 32.46376 | 18.66465 | 35060 ft | 536 kts | 135° |
| 2026-05-06 09:58 | 32.41249 | 18.72835 | 35068 ft | 538 kts | 135° |
| 2026-05-06 09:58 | 32.36073 | 18.79259 | 35064 ft | 539 kts | 135° |
| 2026-05-06 09:59 | 32.30882 | 18.85687 | 35073 ft | 540 kts | 135° |
| 2026-05-06 09:59 | 32.25704 | 18.92087 | 35075 ft | 541 kts | 135° |
| 2026-05-06 10:00 | 32.20522 | 18.98484 | 35067 ft | 542 kts | 135° |
| 2026-05-06 10:00 | 32.15276 | 19.04947 | 35071 ft | 543 kts | 135° |
| 2026-05-06 10:01 | 32.10072 | 19.11346 | 35065 ft | 544 kts | 135° |
| 2026-05-06 10:01 | 32.04850 | 19.17759 | 35075 ft | 545 kts | 135° |
| 2026-05-06 10:02 | 31.99606 | 19.24182 | 35058 ft | 546 kts | 135° |
| 2026-05-06 10:02 | 31.94333 | 19.30634 | 35061 ft | 544 kts | 135° |
| 2026-05-06 10:03 | 31.89105 | 19.37019 | 35076 ft | 544 kts | 135° |
| 2026-05-06 10:03 | 31.83968 | 19.43502 | 35063 ft | 541 kts | 134° |
| 2026-05-06 10:04 | 31.78868 | 19.49996 | 35069 ft | 541 kts | 134° |
| 2026-05-06 10:04 | 31.73773 | 19.56467 | 35072 ft | 543 kts | 134° |
| 2026-05-06 10:05 | 31.68631 | 19.62979 | 35065 ft | 544 kts | 134° |
| 2026-05-06 10:05 | 31.63475 | 19.69507 | 35070 ft | 544 kts | 135° |
| 2026-05-06 10:06 | 31.58365 | 19.75964 | 35062 ft | 543 kts | 135° |
| 2026-05-06 10:06 | 31.53233 | 19.82434 | 35059 ft | 544 kts | 135° |
| 2026-05-06 10:07 | 31.48083 | 19.88919 | 35063 ft | 544 kts | 135° |
| 2026-05-06 10:07 | 31.42909 | 19.95417 | 35065 ft | 544 kts | 135° |
| 2026-05-06 10:08 | 31.37751 | 20.01888 | 35075 ft | 545 kts | 134° |
| 2026-05-06 10:08 | 31.32595 | 20.08351 | 35067 ft | 545 kts | 135° |
| 2026-05-06 10:09 | 31.27432 | 20.14809 | 35069 ft | 545 kts | 135° |
| 2026-05-06 10:09 | 31.22264 | 20.21262 | 35073 ft | 546 kts | 135° |
| 2026-05-06 10:10 | 31.17057 | 20.27750 | 35081 ft | 546 kts | 135° |
| 2026-05-06 10:10 | 31.11865 | 20.34209 | 35087 ft | 546 kts | 135° |
| 2026-05-06 10:11 | 31.06688 | 20.40642 | 35085 ft | 543 kts | 135° |
| 2026-05-06 10:11 | 31.01528 | 20.47041 | 35085 ft | 545 kts | 135° |
| 2026-05-06 10:12 | 30.97206 | 20.52392 | 35084 ft | 547 kts | 135° |
| 2026-05-06 10:12 | 30.91129 | 20.59904 | 35081 ft | 545 kts | 135° |
| 2026-05-06 10:13 | 30.85932 | 20.66316 | 35074 ft | 543 kts | 136° |
| 2026-05-06 10:13 | 30.80760 | 20.72682 | 35076 ft | 544 kts | 135° |
| 2026-05-06 10:14 | 30.75586 | 20.79045 | 35057 ft | 542 kts | 135° |
| 2026-05-06 10:14 | 30.70417 | 20.85393 | 35070 ft | 542 kts | 136° |
| 2026-05-06 10:15 | 30.65230 | 20.91749 | 35076 ft | 542 kts | 136° |
| 2026-05-06 10:15 | 30.60019 | 20.98124 | 35071 ft | 543 kts | 136° |
| 2026-05-06 10:16 | 30.54841 | 21.04447 | 35067 ft | 544 kts | 136° |
| 2026-05-06 10:16 | 30.49604 | 21.10739 | 35068 ft | 545 kts | 137° |
| 2026-05-06 10:17 | 30.44230 | 21.16990 | 35069 ft | 546 kts | 137° |
| 2026-05-06 10:17 | 30.38890 | 21.23195 | 35061 ft | 546 kts | 137° |
| 2026-05-06 10:18 | 30.33515 | 21.29441 | 35054 ft | 547 kts | 137° |
| 2026-05-06 10:18 | 30.28176 | 21.35629 | 35063 ft | 549 kts | 137° |
| 2026-05-06 10:19 | 30.22773 | 21.41882 | 35078 ft | 549 kts | 137° |
| 2026-05-06 10:19 | 30.17374 | 21.48120 | 35073 ft | 549 kts | 137° |
| 2026-05-06 10:20 | 30.11978 | 21.54347 | 35064 ft | 549 kts | 137° |
| 2026-05-06 10:20 | 30.06560 | 21.60583 | 35077 ft | 550 kts | 137° |
| 2026-05-06 10:21 | 30.01133 | 21.66824 | 35074 ft | 552 kts | 138° |
| 2026-05-06 10:21 | 29.95713 | 21.73049 | 35060 ft | 549 kts | 138° |
| 2026-05-06 10:22 | 29.90327 | 21.79218 | 35076 ft | 550 kts | 138° |
| 2026-05-06 10:22 | 29.84912 | 21.85414 | 35061 ft | 548 kts | 138° |
| 2026-05-06 10:23 | 29.79490 | 21.91610 | 35054 ft | 548 kts | 138° |
| 2026-05-06 10:23 | 29.74108 | 21.97751 | 35065 ft | 548 kts | 138° |
| 2026-05-06 10:24 | 29.68667 | 22.03943 | 35058 ft | 549 kts | 138° |
| 2026-05-06 10:24 | 29.63249 | 22.10104 | 35072 ft | 549 kts | 138° |
| 2026-05-06 10:25 | 29.57846 | 22.16240 | 35077 ft | 549 kts | 138° |
| 2026-05-06 10:25 | 29.52423 | 22.22384 | 35059 ft | 548 kts | 138° |
| 2026-05-06 10:26 | 29.46964 | 22.28556 | 35076 ft | 548 kts | 138° |
| 2026-05-06 10:26 | 29.41536 | 22.34691 | 35084 ft | 548 kts | 138° |
| 2026-05-06 10:27 | 29.36108 | 22.40810 | 35091 ft | 548 kts | 138° |
| 2026-05-06 10:27 | 29.30686 | 22.46917 | 35086 ft | 547 kts | 138° |
| 2026-05-06 10:28 | 29.25285 | 22.52988 | 35091 ft | 548 kts | 138° |
| 2026-05-06 10:28 | 29.19805 | 22.59140 | 35082 ft | 548 kts | 138° |
| 2026-05-06 10:29 | 29.14355 | 22.65248 | 35096 ft | 549 kts | 139° |
| 2026-05-06 10:29 | 29.08922 | 22.71328 | 35090 ft | 549 kts | 139° |
| 2026-05-06 10:30 | 29.03457 | 22.77437 | 35086 ft | 548 kts | 139° |
| 2026-05-06 10:30 | 28.98005 | 22.83515 | 35083 ft | 549 kts | 139° |
| 2026-05-06 10:31 | 28.92541 | 22.89604 | 35102 ft | 549 kts | 139° |
| 2026-05-06 10:31 | 28.87067 | 22.95690 | 35095 ft | 549 kts | 139° |
| 2026-05-06 10:32 | 28.81596 | 23.01764 | 35102 ft | 549 kts | 139° |
| 2026-05-06 10:32 | 28.76119 | 23.07835 | 35097 ft | 549 kts | 139° |
| 2026-05-06 10:33 | 28.70665 | 23.13875 | 35092 ft | 549 kts | 139° |
| 2026-05-06 10:33 | 28.65200 | 23.19914 | 35096 ft | 549 kts | 139° |
| 2026-05-06 10:34 | 28.59711 | 23.25971 | 35096 ft | 549 kts | 139° |
| 2026-05-06 10:34 | 28.54227 | 23.32015 | 35094 ft | 548 kts | 139° |
| 2026-05-06 10:35 | 28.48787 | 23.37998 | 35093 ft | 547 kts | 139° |
| 2026-05-06 10:35 | 28.43302 | 23.44022 | 35092 ft | 549 kts | 139° |
| 2026-05-06 10:36 | 28.37835 | 23.50019 | 35092 ft | 548 kts | 139° |
| 2026-05-06 10:36 | 28.32324 | 23.56055 | 35090 ft | 548 kts | 139° |
| 2026-05-06 10:37 | 28.26864 | 23.62025 | 35103 ft | 549 kts | 139° |
| 2026-05-06 10:37 | 28.21377 | 23.68018 | 35076 ft | 548 kts | 140° |
| 2026-05-06 10:38 | 28.15886 | 23.74003 | 35081 ft | 547 kts | 140° |
| 2026-05-06 10:38 | 28.10397 | 23.79979 | 35084 ft | 547 kts | 139° |
| 2026-05-06 10:39 | 28.04941 | 23.85908 | 35086 ft | 548 kts | 139° |
| 2026-05-06 10:39 | 27.99413 | 23.91909 | 35082 ft | 548 kts | 140° |
| 2026-05-06 10:40 | 27.93921 | 23.97860 | 35085 ft | 548 kts | 139° |
| 2026-05-06 10:40 | 27.88442 | 24.03789 | 35084 ft | 547 kts | 140° |
| 2026-05-06 10:41 | 27.82923 | 24.09752 | 35088 ft | 547 kts | 139° |
| 2026-05-06 10:41 | 27.77443 | 24.15665 | 35086 ft | 546 kts | 140° |
| 2026-05-06 10:42 | 27.71929 | 24.21606 | 35088 ft | 546 kts | 139° |
| 2026-05-06 10:42 | 27.66446 | 24.27503 | 35087 ft | 546 kts | 139° |
| 2026-05-06 10:43 | 27.60928 | 24.33432 | 35086 ft | 546 kts | 140° |
| 2026-05-06 10:44 | 27.52685 | 24.42269 | 35090 ft | 546 kts | 140° |
| 2026-05-06 10:44 | 27.47196 | 24.48145 | 35088 ft | 546 kts | 140° |
| 2026-05-06 10:45 | 27.41670 | 24.54050 | 35087 ft | 546 kts | 140° |
| 2026-05-06 10:45 | 27.36156 | 24.59936 | 35091 ft | 546 kts | 140° |
| 2026-05-06 10:46 | 27.30688 | 24.65762 | 35085 ft | 546 kts | 140° |
| 2026-05-06 10:46 | 27.25174 | 24.71630 | 35075 ft | 545 kts | 140° |
| 2026-05-06 10:47 | 27.19637 | 24.77514 | 35073 ft | 544 kts | 140° |
| 2026-05-06 10:47 | 27.14148 | 24.83338 | 35073 ft | 544 kts | 140° |
| 2026-05-06 10:48 | 27.08680 | 24.89132 | 35072 ft | 544 kts | 140° |
| 2026-05-06 10:48 | 27.03180 | 24.94951 | 35073 ft | 544 kts | 140° |
| 2026-05-06 10:49 | 26.97606 | 25.00710 | 35064 ft | 540 kts | 145° |
| 2026-05-06 10:49 | 26.91682 | 25.05819 | 35071 ft | 539 kts | 146° |
| 2026-05-06 10:50 | 26.85711 | 25.10978 | 35074 ft | 539 kts | 146° |
| 2026-05-06 10:50 | 26.79749 | 25.16123 | 35072 ft | 539 kts | 146° |
| 2026-05-06 10:51 | 26.73812 | 25.21241 | 35068 ft | 539 kts | 146° |
| 2026-05-06 10:51 | 26.67906 | 25.26323 | 35071 ft | 539 kts | 146° |
| 2026-05-06 10:52 | 26.61958 | 25.31437 | 35072 ft | 539 kts | 146° |
| 2026-05-06 10:52 | 26.56003 | 25.36548 | 35064 ft | 539 kts | 146° |
| 2026-05-06 10:53 | 26.50049 | 25.41652 | 35070 ft | 539 kts | 146° |
| 2026-05-06 10:53 | 26.44105 | 25.46740 | 35072 ft | 539 kts | 146° |
| 2026-05-06 10:54 | 26.38187 | 25.51801 | 35070 ft | 539 kts | 146° |
| 2026-05-06 10:54 | 26.32254 | 25.56869 | 35067 ft | 539 kts | 146° |
| 2026-05-06 10:55 | 26.26275 | 25.61966 | 35069 ft | 539 kts | 146° |
| 2026-05-06 10:55 | 26.20323 | 25.67037 | 35058 ft | 540 kts | 147° |
| 2026-05-06 10:56 | 26.14362 | 25.72105 | 35068 ft | 538 kts | 147° |
| 2026-05-06 10:56 | 26.08372 | 25.77192 | 35068 ft | 538 kts | 147° |
| 2026-05-06 10:57 | 26.02453 | 25.82213 | 35072 ft | 537 kts | 147° |
| 2026-05-06 10:57 | 25.96529 | 25.87232 | 35081 ft | 537 kts | 147° |
| 2026-05-06 10:58 | 25.90565 | 25.92280 | 35085 ft | 537 kts | 147° |
| 2026-05-06 10:58 | 25.84614 | 25.97308 | 35070 ft | 537 kts | 147° |
| 2026-05-06 10:59 | 25.78686 | 26.02309 | 35064 ft | 536 kts | 147° |
| 2026-05-06 10:59 | 25.72752 | 26.07309 | 35069 ft | 536 kts | 147° |
| 2026-05-06 11:00 | 25.66822 | 26.12301 | 35071 ft | 536 kts | 147° |
| 2026-05-06 11:00 | 25.60879 | 26.17297 | 35072 ft | 535 kts | 147° |
| 2026-05-06 11:01 | 25.54960 | 26.22265 | 35066 ft | 536 kts | 147° |
| 2026-05-06 11:01 | 25.49003 | 26.27261 | 35070 ft | 536 kts | 147° |
| 2026-05-06 11:02 | 25.43054 | 26.32243 | 35076 ft | 536 kts | 147° |
| 2026-05-06 11:02 | 25.37122 | 26.37204 | 35078 ft | 536 kts | 147° |
| 2026-05-06 11:03 | 25.31202 | 26.42137 | 35082 ft | 536 kts | 147° |
| 2026-05-06 11:03 | 25.25228 | 26.47112 | 35081 ft | 536 kts | 147° |
| 2026-05-06 11:04 | 25.19268 | 26.52067 | 35080 ft | 536 kts | 147° |
| 2026-05-06 11:04 | 25.13325 | 26.57000 | 35089 ft | 536 kts | 147° |
| 2026-05-06 11:05 | 25.07344 | 26.61960 | 35096 ft | 536 kts | 147° |
| 2026-05-06 11:05 | 25.01388 | 26.66896 | 35090 ft | 536 kts | 148° |
| 2026-05-06 11:06 | 24.95466 | 26.71795 | 35100 ft | 534 kts | 148° |
| 2026-05-06 11:06 | 24.89513 | 26.76713 | 35097 ft | 534 kts | 148° |
| 2026-05-06 11:07 | 24.83580 | 26.81608 | 35093 ft | 534 kts | 147° |
| 2026-05-06 11:07 | 24.77639 | 26.86506 | 35093 ft | 534 kts | 147° |
| 2026-05-06 11:08 | 24.71661 | 26.91427 | 35092 ft | 534 kts | 148° |
| 2026-05-06 11:08 | 24.65709 | 26.96321 | 35091 ft | 534 kts | 148° |
| 2026-05-06 11:09 | 24.59767 | 27.01201 | 35095 ft | 534 kts | 148° |
| 2026-05-06 11:09 | 24.53826 | 27.06072 | 35096 ft | 534 kts | 147° |
| 2026-05-06 11:10 | 24.47858 | 27.10961 | 35100 ft | 534 kts | 148° |
| 2026-05-06 11:10 | 24.41921 | 27.15819 | 35096 ft | 534 kts | 147° |
| 2026-05-06 11:11 | 24.35964 | 27.20689 | 35092 ft | 534 kts | 147° |
| 2026-05-06 11:11 | 24.29989 | 27.25566 | 35088 ft | 534 kts | 148° |
| 2026-05-06 11:12 | 24.24035 | 27.30418 | 35077 ft | 535 kts | 147° |
| 2026-05-06 11:12 | 24.18049 | 27.35294 | 35076 ft | 535 kts | 147° |
| 2026-05-06 11:13 | 24.12066 | 27.40157 | 35081 ft | 535 kts | 147° |
| 2026-05-06 11:13 | 24.06100 | 27.45006 | 35078 ft | 535 kts | 147° |
| 2026-05-06 11:14 | 24.00114 | 27.49862 | 35076 ft | 534 kts | 147° |
| 2026-05-06 11:14 | 23.94179 | 27.54672 | 35078 ft | 534 kts | 147° |
| 2026-05-06 11:15 | 23.88178 | 27.59531 | 35077 ft | 534 kts | 147° |
| 2026-05-06 11:15 | 23.82207 | 27.64358 | 35076 ft | 534 kts | 147° |
| 2026-05-06 11:16 | 23.76220 | 27.69192 | 35063 ft | 533 kts | 148° |
| 2026-05-06 11:16 | 23.70258 | 27.74003 | 35060 ft | 533 kts | 148° |
| 2026-05-06 11:17 | 23.64283 | 27.78816 | 35060 ft | 532 kts | 148° |
| 2026-05-06 11:17 | 23.58356 | 27.83585 | 35058 ft | 532 kts | 148° |
| 2026-05-06 11:18 | 23.52404 | 27.88369 | 35056 ft | 531 kts | 148° |
| 2026-05-06 11:18 | 23.46469 | 27.93135 | 35050 ft | 526 kts | 148° |
| 2026-05-06 11:18 | 23.43600 | 27.95441 | 35039 ft | 502 kts | 148° |
| 2026-05-06 11:19 | 23.40844 | 27.97650 | 35032 ft | 479 kts | 148° |
| 2026-05-06 11:19 | 23.38198 | 27.99770 | 34972 ft | 460 kts | 148° |
| 2026-05-06 11:19 | 23.35667 | 28.01795 | 34619 ft | 448 kts | 148° |
| 2026-05-06 11:19 | 23.33204 | 28.03766 | 34301 ft | 436 kts | 148° |
| 2026-05-06 11:20 | 23.30794 | 28.05694 | 34012 ft | 423 kts | 148° |
| 2026-05-06 11:20 | 23.28481 | 28.07547 | 34023 ft | 404 kts | 148° |
| 2026-05-06 11:20 | 23.26267 | 28.09319 | 34002 ft | 386 kts | 149° |
| 2026-05-06 11:20 | 23.24117 | 28.11037 | 33471 ft | 384 kts | 149° |
| 2026-05-06 11:21 | 23.21941 | 28.12757 | 32349 ft | 400 kts | 149° |
| 2026-05-06 11:21 | 23.19628 | 28.14570 | 30801 ft | 425 kts | 149° |
| 2026-05-06 11:21 | 23.17166 | 28.16464 | 29002 ft | 452 kts | 149° |
| 2026-05-06 11:21 | 23.14539 | 28.18421 | 27261 ft | 472 kts | 150° |
| 2026-05-06 11:22 | 23.12742 | 28.19708 | 26300 ft | 478 kts | 150° |
| 2026-05-06 11:22 | 23.09041 | 28.22358 | 25346 ft | 468 kts | 146° |
| 2026-05-06 11:22 | 23.06600 | 28.24508 | 25138 ft | 447 kts | 146° |
| 2026-05-06 11:22 | 23.04076 | 28.26455 | 24431 ft | 443 kts | 145° |
| 2026-05-06 11:23 | 23.01673 | 28.28531 | 23726 ft | 438 kts | 144° |
| 2026-05-06 11:23 | 22.99305 | 28.30575 | 23046 ft | 432 kts | 144° |
| 2026-05-06 11:23 | 22.98949 | 28.30880 | 22944 ft | 431 kts | 144° |
| 2026-05-06 11:23 | 22.96724 | 28.32790 | 22294 ft | 428 kts | 144° |
| 2026-05-06 11:24 | 22.94363 | 28.34730 | 22076 ft | 417 kts | 147° |
| 2026-05-06 11:24 | 22.92061 | 28.36552 | 22149 ft | 411 kts | 147° |
| 2026-05-06 11:24 | 22.89704 | 28.38424 | 22163 ft | 421 kts | 146° |
| 2026-05-06 11:24 | 22.87303 | 28.40341 | 22191 ft | 432 kts | 145° |
| 2026-05-06 11:25 | 22.84910 | 28.42257 | 22186 ft | 428 kts | 144° |
| 2026-05-06 11:25 | 22.82493 | 28.44188 | 22170 ft | 425 kts | 145° |
| 2026-05-06 11:25 | 22.80078 | 28.46094 | 22186 ft | 439 kts | 146° |
| 2026-05-06 11:25 | 22.77543 | 28.48089 | 22299 ft | 458 kts | 146° |
| 2026-05-06 11:26 | 22.74960 | 28.50134 | 22784 ft | 465 kts | 146° |
| 2026-05-06 11:26 | 22.72362 | 28.52189 | 23474 ft | 467 kts | 146° |
| 2026-05-06 11:26 | 22.71788 | 28.52644 | 23602 ft | 468 kts | 146° |
| 2026-05-06 11:26 | 22.69162 | 28.54721 | 24097 ft | 474 kts | 146° |
| 2026-05-06 11:27 | 22.67908 | 28.55712 | 24354 ft | 476 kts | 146° |
| 2026-05-06 11:27 | 22.65216 | 28.57839 | 24898 ft | 480 kts | 146° |
| 2026-05-06 11:27 | 22.62516 | 28.59972 | 25439 ft | 484 kts | 146° |
| 2026-05-06 11:27 | 22.59779 | 28.62135 | 25951 ft | 488 kts | 147° |
| 2026-05-06 11:28 | 22.57019 | 28.64313 | 26449 ft | 491 kts | 147° |
| 2026-05-06 11:28 | 22.54284 | 28.66469 | 26916 ft | 495 kts | 147° |
| 2026-05-06 11:28 | 22.51481 | 28.68680 | 27369 ft | 498 kts | 147° |
| 2026-05-06 11:28 | 22.48648 | 28.70913 | 27815 ft | 501 kts | 147° |
| 2026-05-06 11:29 | 22.45838 | 28.73125 | 28272 ft | 504 kts | 147° |
| 2026-05-06 11:29 | 22.42984 | 28.75373 | 28699 ft | 506 kts | 147° |
| 2026-05-06 11:29 | 22.40125 | 28.77622 | 29084 ft | 509 kts | 147° |
| 2026-05-06 11:29 | 22.38211 | 28.79127 | 29364 ft | 510 kts | 147° |
| 2026-05-06 11:30 | 22.35341 | 28.81385 | 29842 ft | 509 kts | 148° |
| 2026-05-06 11:30 | 22.31546 | 28.84366 | 30523 ft | 508 kts | 148° |
| 2026-05-06 11:30 | 22.29632 | 28.85869 | 30853 ft | 507 kts | 148° |
| 2026-05-06 11:30 | 22.26793 | 28.88096 | 31300 ft | 507 kts | 148° |